Time;durP1;ratioP1;P1;durP2;ratioP2;P2;SDS_P1;SDS_P2;PMS_P1;PMS_P2;Temp;Humidity;BMP_temperature;BMP_pressure;BME280_temperature;BME280_humidity;BME280_pressure;Samples;Min_cycle;Max_cycle;Signal;HPM_P1;HPM_P2
2021/12/23 00:01:52;;;;;;;;;;;;;;;2.33;54.65;100617.66;4945985;28;6812;-71
2021/12/23 00:04:18;;;;;;;;;;;;;;;2.35;55.00;100616.13;4959127;28;6922;-72
2021/12/23 00:06:44;;;;;;;;;;;;;;;2.39;54.67;100602.09;4960452;28;6792;-72
2021/12/23 00:09:10;;;;;;;;;;;;;;;2.42;55.03;100600.72;4959851;28;6991;-72
2021/12/23 00:11:36;;;;;;;;;;;;;;;2.48;55.17;100595.28;4959084;28;7360;-72
2021/12/23 00:14:08;;;;;;;;;;;;;;;2.53;55.43;100599.09;4960616;28;6784;-72
2021/12/23 00:16:47;;;;;;;;;;;;;;;2.56;55.19;100591.75;4946927;28;6808;-72
2021/12/23 00:19:58;;;;;;;;;;;;;;;2.60;54.40;100587.84;4959871;28;6795;-72
2021/12/23 00:24:52;;;;;;;;;;;;;;;2.62;54.67;100579.63;4965800;28;7122;-72
2021/12/23 00:27:17;;;;;;;;;;;;;;;2.62;54.59;100581.25;4944965;28;7033;-73
2021/12/23 00:29:43;;;;;;;;;;;;;;;2.61;54.38;100577.84;4946191;28;6907;-72
2021/12/23 00:32:10;;;;;;;;;;;;;;;2.60;54.62;100582.78;4959630;28;6796;-72
2021/12/23 00:34:39;;;;;;;;;;;;;;;2.56;54.91;100576.56;4959179;28;6788;-72
2021/12/23 00:37:09;;;;;;;;;;;;;;;2.55;54.85;100563.78;4975894;28;6963;-72
2021/12/23 00:39:35;;;;;;;;;;;;;;;2.54;54.50;100541.75;4959300;28;7205;-72
2021/12/23 00:42:06;;;;;;;;;;;;;;;2.51;54.66;100534.81;4943598;28;7169;-72
2021/12/23 00:44:35;;;;;;;;;;;;;;;2.50;54.13;100530.50;4942552;28;7893;-72
2021/12/23 00:47:00;;;;;;;;;;;;;;;2.49;54.35;100526.19;4959055;28;6804;-72
2021/12/23 00:49:26;;;;;;;;;;;;;;;2.49;54.32;100516.09;4959388;28;7264;-72
2021/12/23 00:51:53;;;;;;;;;;;;;;;2.49;54.88;100518.63;4957406;28;6832;-72
2021/12/23 00:54:19;;;;;;;;;;;;;;;2.51;55.12;100512.03;4957167;28;7052;-72
2021/12/23 00:56:48;;;;;;;;;;;;;;;2.51;55.07;100501.91;4956721;28;6927;-72
2021/12/23 00:59:14;;;;;;;;;;;;;;;2.54;54.70;100512.31;4960131;28;6815;-72
2021/12/23 01:01:41;;;;;;;;;;;;;;;2.54;54.48;100516.47;4957077;28;6977;-72
2021/12/23 01:04:06;;;;;;;;;;;;;;;2.54;54.51;100516.47;4974750;28;6793;-72
2021/12/23 01:06:32;;;;;;;;;;;;;;;2.54;53.89;100535.06;4943105;28;8047;-72
2021/12/23 01:08:58;;;;;;;;;;;;;;;2.51;54.39;100542.38;4958335;28;6939;-72
2021/12/23 01:11:24;;;;;;;;;;;;;;;2.50;54.15;100541.53;4958607;28;6780;-72
2021/12/23 01:14:02;;;;;;;;;;;;;;;2.47;54.58;100548.88;4955505;28;6812;-72
2021/12/23 01:17:41;;;;;;;;;;;;;;;2.45;53.92;100531.78;4956886;28;7904;-72
2021/12/23 01:19:25;;;;;;;;;;;;;;;2.40;54.44;100530.50;4957932;28;6832;-73
2021/12/23 01:21:51;;;;;;;;;;;;;;;2.36;53.87;100517.59;4955552;28;6863;-72
2021/12/23 01:24:17;;;;;;;;;;;;;;;2.32;53.70;100519.75;4960572;28;7803;-72
2021/12/23 01:26:43;;;;;;;;;;;;;;;2.26;53.86;100511.66;4959440;28;6867;-72
2021/12/23 01:29:09;;;;;;;;;;;;;;;2.22;54.14;100495.34;4954700;28;6792;-72
2021/12/23 01:31:42;;;;;;;;;;;;;;;2.18;54.43;100511.03;4960191;28;6784;-72
2021/12/23 01:34:08;;;;;;;;;;;;;;;2.14;54.88;100514.94;4956748;28;6816;-72
2021/12/23 01:36:34;;;;;;;;;;;;;;;2.10;54.44;100502.81;4960215;28;7562;-72
2021/12/23 01:38:59;;;;;;;;;;;;;;;2.11;54.46;100513.78;4957661;28;7020;-72
2021/12/23 01:41:26;;;;;;;;;;;;;;;2.12;54.51;100500.38;4941641;28;7277;-72
2021/12/23 01:43:53;;;;;;;;;;;;;;;2.13;55.00;100497.13;4941477;28;6788;-72
2021/12/23 01:46:22;;;;;;;;;;;;;;;2.16;54.53;100487.25;4956414;28;7638;-72
2021/12/23 01:48:49;;;;;;;;;;;;;;;2.20;54.99;100472.47;4939032;28;8398;-72
2021/12/23 01:51:15;;;;;;;;;;;;;;;2.27;55.26;100480.53;4974767;28;7162;-72
2021/12/23 01:53:40;;;;;;;;;;;;;;;2.32;54.84;100480.19;4957921;28;6788;-72
2021/12/23 01:56:07;;;;;;;;;;;;;;;2.38;55.48;100466.25;4940937;28;7463;-72
2021/12/23 01:58:40;;;;;;;;;;;;;;;2.45;54.98;100486.25;4958298;28;6808;-72
2021/12/23 02:01:08;;;;;;;;;;;;;;;2.49;55.42;100479.03;4956890;28;6832;-72
2021/12/23 02:03:34;;;;;;;;;;;;;;;2.55;54.97;100470.16;4940324;28;6812;-72
2021/12/23 02:06:00;;;;;;;;;;;;;;;2.62;55.03;100485.06;4972907;28;7188;-72
2021/12/23 02:08:26;;;;;;;;;;;;;;;2.64;54.55;100491.13;4941808;28;6864;-72
2021/12/23 02:10:54;;;;;;;;;;;;;;;2.68;54.50;100489.75;4961646;28;6822;-72
2021/12/23 02:13:22;;;;;;;;;;;;;;;2.70;55.29;100498.34;4943780;28;6804;-72
2021/12/23 02:15:48;;;;;;;;;;;;;;;2.71;55.71;100497.63;4958702;28;7209;-72
2021/12/23 02:18:14;;;;;;;;;;;;;;;2.72;55.24;100489.25;4927824;28;6975;-72
2021/12/23 02:20:40;;;;;;;;;;;;;;;2.74;55.22;100492.78;4973294;28;6808;-72
2021/12/23 02:23:09;;;;;;;;;;;;;;;2.76;55.26;100502.28;4958213;28;6946;-72
2021/12/23 02:25:36;;;;;;;;;;;;;;;2.77;54.86;100503.16;4944208;28;7004;-72
2021/12/23 02:28:07;;;;;;;;;;;;;;;2.80;55.70;100507.59;4958630;28;6812;-72
2021/12/23 02:30:38;;;;;;;;;;;;;;;2.84;54.79;100490.22;4959004;28;6812;-73
2021/12/23 02:33:06;;;;;;;;;;;;;;;2.87;55.37;100490.47;4960428;28;6975;-73
2021/12/23 02:35:33;;;;;;;;;;;;;;;2.91;54.94;100477.31;4958509;28;7043;-72
2021/12/23 02:37:59;;;;;;;;;;;;;;;2.92;55.16;100468.94;4957949;28;7260;-72
2021/12/23 02:40:37;;;;;;;;;;;;;;;2.94;55.32;100468.19;4955428;28;6784;-72
2021/12/23 02:43:22;;;;;;;;;;;;;;;2.92;54.76;100458.81;4956050;28;6875;-72
2021/12/23 02:45:53;;;;;;;;;;;;;;;2.94;55.13;100453.00;4958096;28;6820;-72
2021/12/23 02:48:29;;;;;;;;;;;;;;;2.91;54.43;100446.94;4957473;28;10286;-72
2021/12/23 02:50:56;;;;;;;;;;;;;;;2.90;54.93;100456.91;4958023;28;6909;-72
2021/12/23 02:53:23;;;;;;;;;;;;;;;2.86;54.88;100443.13;4941239;28;6931;-72
2021/12/23 02:55:49;;;;;;;;;;;;;;;2.81;54.63;100441.91;4950611;28;6827;-72
2021/12/23 02:58:15;;;;;;;;;;;;;;;2.78;55.03;100449.22;4935585;28;6973;-72
2021/12/23 03:00:44;;;;;;;;;;;;;;;2.75;54.22;100462.53;4960867;28;6983;-72
2021/12/23 03:03:10;;;;;;;;;;;;;;;2.72;55.23;100469.00;4942303;28;6963;-72
2021/12/23 03:05:35;;;;;;;;;;;;;;;2.67;55.09;100467.72;4963943;28;6875;-72
2021/12/23 03:08:02;;;;;;;;;;;;;;;2.63;54.45;100454.84;4947171;28;6823;-72
2021/12/23 03:10:28;;;;;;;;;;;;;;;2.59;55.09;100444.34;4942298;28;7320;-72
2021/12/23 03:12:54;;;;;;;;;;;;;;;2.54;54.57;100453.19;4963852;28;6808;-72
2021/12/23 03:15:21;;;;;;;;;;;;;;;2.50;55.46;100458.03;4964045;28;7634;-72
2021/12/23 03:17:46;;;;;;;;;;;;;;;2.49;55.59;100455.34;4962049;28;6797;-72
2021/12/23 03:20:12;;;;;;;;;;;;;;;2.49;55.29;100452.81;4964775;28;6795;-72
2021/12/23 03:22:39;;;;;;;;;;;;;;;2.49;55.55;100440.19;4965065;28;6830;-72
2021/12/23 03:25:06;;;;;;;;;;;;;;;2.50;55.15;100426.75;4967301;28;7884;-73
2021/12/23 03:27:31;;;;;;;;;;;;;;;2.53;55.79;100437.16;4962370;28;6803;-72
2021/12/23 03:29:57;;;;;;;;;;;;;;;2.54;55.65;100443.97;4947352;28;6942;-72
2021/12/23 03:32:24;;;;;;;;;;;;;;;2.57;55.49;100434.09;4980956;28;7916;-72
2021/12/23 03:34:50;;;;;;;;;;;;;;;2.59;55.36;100424.97;4964736;28;7953;-72
2021/12/23 03:37:15;;;;;;;;;;;;;;;2.62;55.84;100417.66;4964924;28;6970;-72
2021/12/23 03:39:41;;;;;;;;;;;;;;;2.66;55.06;100410.28;4962319;28;7183;-72
2021/12/23 03:42:08;;;;;;;;;;;;;;;2.68;56.00;100401.16;4964516;28;7517;-72
2021/12/23 03:44:33;;;;;;;;;;;;;;;2.68;55.88;100401.16;4965603;28;6828;-72
2021/12/23 03:46:59;;;;;;;;;;;;;;;2.70;55.09;100397.09;4947166;28;7045;-72
2021/12/23 03:49:25;;;;;;;;;;;;;;;2.67;55.03;100395.22;4963793;28;7943;-72
2021/12/23 03:51:51;;;;;;;;;;;;;;;2.66;55.41;100403.59;4960308;28;7876;-72
2021/12/23 03:54:16;;;;;;;;;;;;;;;2.65;56.16;100409.38;4948918;28;7176;-72
2021/12/23 03:56:43;;;;;;;;;;;;;;;2.63;55.79;100409.28;4947073;28;6984;-72
2021/12/23 03:59:09;;;;;;;;;;;;;;;2.62;55.10;100402.47;4963037;28;6804;-72
2021/12/23 04:01:35;;;;;;;;;;;;;;;2.62;55.85;100388.91;4962175;28;6772;-72
2021/12/23 04:04:02;;;;;;;;;;;;;;;2.63;56.44;100391.56;4962266;28;7089;-72
2021/12/23 04:06:27;;;;;;;;;;;;;;;2.65;55.58;100371.44;4945219;28;7008;-72
2021/12/23 04:08:54;;;;;;;;;;;;;;;2.67;55.76;100351.31;4959304;28;7133;-72
2021/12/23 04:11:20;;;;;;;;;;;;;;;2.68;56.35;100337.88;4960593;28;7166;-72
2021/12/23 04:13:46;;;;;;;;;;;;;;;2.71;56.07;100349.16;4946422;28;6993;-72
2021/12/23 04:16:12;;;;;;;;;;;;;;;2.71;55.93;100340.69;4959923;28;9435;-72
2021/12/23 04:18:38;;;;;;;;;;;;;;;2.72;55.87;100329.78;4958166;28;6791;-72
2021/12/23 04:21:04;;;;;;;;;;;;;;;2.72;55.81;100332.31;4958769;28;6788;-72
2021/12/23 04:23:32;;;;;;;;;;;;;;;2.72;55.51;100357.63;4945932;28;7463;-72
2021/12/23 04:25:59;;;;;;;;;;;;;;;2.73;55.53;100360.25;4961767;28;9244;-72
2021/12/23 04:28:26;;;;;;;;;;;;;;;2.74;56.13;100361.16;4959463;28;6812;-72
2021/12/23 04:30:52;;;;;;;;;;;;;;;2.76;55.38;100359.63;4961195;28;7046;-72
2021/12/23 04:33:18;;;;;;;;;;;;;;;2.76;55.74;100345.34;4956661;28;7538;-72
2021/12/23 04:35:44;;;;;;;;;;;;;;;2.76;55.29;100336.84;4943697;28;6969;-72
2021/12/23 04:38:10;;;;;;;;;;;;;;;2.75;55.83;100325.84;4961057;28;7140;-72
2021/12/23 04:40:37;;;;;;;;;;;;;;;2.73;55.52;100329.03;4944450;28;7292;-72
2021/12/23 04:43:08;;;;;;;;;;;;;;;2.70;55.91;100313.56;4942370;28;7035;-72
2021/12/23 04:45:35;;;;;;;;;;;;;;;2.67;55.04;100319.31;4942463;28;7020;-72
2021/12/23 04:48:01;;;;;;;;;;;;;;;2.63;55.48;100320.72;4941268;28;7771;-72
2021/12/23 04:50:27;;;;;;;;;;;;;;;2.61;55.04;100332.38;4943409;28;6887;-72
2021/12/23 04:52:52;;;;;;;;;;;;;;;2.57;55.80;100332.88;4957980;28;6808;-72
2021/12/23 04:55:18;;;;;;;;;;;;;;;2.53;55.79;100330.88;4941569;28;6985;-72
2021/12/23 04:57:44;;;;;;;;;;;;;;;2.48;56.01;100327.97;4959582;28;6857;-72
2021/12/23 05:00:18;;;;;;;;;;;;;;;2.44;55.21;100322.56;4956030;28;6795;-72
2021/12/23 05:02:44;;;;;;;;;;;;;;;2.41;55.83;100319.75;4953217;28;8135;-72
2021/12/23 05:05:11;;;;;;;;;;;;;;;2.36;55.17;100315.22;4959963;28;6800;-72
2021/12/23 05:07:37;;;;;;;;;;;;;;;2.34;55.32;100316.75;4959729;28;7102;-72
2021/12/23 05:10:06;;;;;;;;;;;;;;;2.30;55.87;100326.50;4960765;28;7365;-72
2021/12/23 05:12:35;;;;;;;;;;;;;;;2.26;55.94;100311.84;4957333;28;6983;-72
2021/12/23 05:15:01;;;;;;;;;;;;;;;2.21;55.50;100302.25;4958122;28;8094;-72
2021/12/23 05:17:27;;;;;;;;;;;;;;;2.20;55.60;100292.91;4942601;28;6800;-72
2021/12/23 05:19:52;;;;;;;;;;;;;;;2.19;56.49;100287.72;4958504;28;6792;-72
2021/12/23 05:22:18;;;;;;;;;;;;;;;2.20;55.60;100281.88;4962253;28;8014;-72
2021/12/23 05:24:44;;;;;;;;;;;;;;;2.24;56.67;100286.44;4961954;28;6831;-72
2021/12/23 05:27:09;;;;;;;;;;;;;;;2.25;56.02;100285.69;4972654;28;6887;-72
2021/12/23 05:29:35;;;;;;;;;;;;;;;2.29;56.13;100281.75;4959556;28;7034;-72
2021/12/23 05:32:02;;;;;;;;;;;;;;;2.33;56.54;100261.88;4959403;28;7017;-73
2021/12/23 05:34:28;;;;;;;;;;;;;;;2.38;56.04;100263.88;4944462;28;6962;-72
2021/12/23 05:36:53;;;;;;;;;;;;;;;2.44;55.94;100256.78;4958487;28;6981;-72
2021/12/23 05:39:19;;;;;;;;;;;;;;;2.49;55.88;100260.53;4958813;28;6796;-72
2021/12/23 05:41:45;;;;;;;;;;;;;;;2.53;56.00;100254.97;4944863;28;6975;-72
2021/12/23 05:44:11;;;;;;;;;;;;;;;2.58;56.62;100252.78;4960278;28;6823;-72
2021/12/23 05:46:37;;;;;;;;;;;;;;;2.62;56.04;100245.56;4952887;28;7071;-72
2021/12/23 05:49:03;;;;;;;;;;;;;;;2.69;56.43;100238.41;4961086;28;6808;-72
2021/12/23 05:51:29;;;;;;;;;;;;;;;2.75;56.60;100238.91;4958509;28;6788;-72
2021/12/23 05:53:54;;;;;;;;;;;;;;;2.81;56.84;100241.91;4961670;28;7029;-72
2021/12/23 05:56:20;;;;;;;;;;;;;;;2.85;56.26;100240.47;4953919;28;6800;-72
2021/12/23 05:58:46;;;;;;;;;;;;;;;2.89;56.63;100243.34;4957324;28;6871;-72
2021/12/23 06:01:12;;;;;;;;;;;;;;;2.94;55.78;100241.16;4960097;28;6800;-72
2021/12/23 06:03:40;;;;;;;;;;;;;;;2.98;56.14;100237.22;4960549;28;6796;-72
2021/12/23 06:06:05;;;;;;;;;;;;;;;3.01;56.53;100229.88;4946489;28;7063;-72
2021/12/23 06:08:31;;;;;;;;;;;;;;;3.06;56.34;100223.50;4930017;28;6800;-72
2021/12/23 06:10:57;;;;;;;;;;;;;;;3.10;56.46;100222.97;4930644;28;7193;-73
2021/12/23 06:13:22;;;;;;;;;;;;;;;3.13;56.01;100219.75;4952069;28;6857;-72
2021/12/23 06:15:48;;;;;;;;;;;;;;;3.15;56.56;100216.59;4927300;28;6942;-72
2021/12/23 06:18:14;;;;;;;;;;;;;;;3.19;55.43;100221.13;4947440;28;7203;-72
2021/12/23 06:20:40;;;;;;;;;;;;;;;3.23;56.22;100228.94;4949583;28;6954;-72
2021/12/23 06:23:05;;;;;;;;;;;;;;;3.25;56.24;100220.72;4950779;28;6990;-72
2021/12/23 06:25:31;;;;;;;;;;;;;;;3.30;55.94;100215.97;4951783;28;7338;-72
2021/12/23 06:27:57;;;;;;;;;;;;;;;3.34;55.32;100210.38;4933852;28;7040;-72
2021/12/23 06:30:23;;;;;;;;;;;;;;;3.39;55.56;100204.00;4963411;28;6859;-72
2021/12/23 06:32:54;;;;;;;;;;;;;;;3.40;55.85;100188.03;4949648;28;6812;-72
2021/12/23 06:35:26;;;;;;;;;;;;;;;3.44;56.10;100199.25;4936856;28;6904;-72
2021/12/23 06:37:52;;;;;;;;;;;;;;;3.46;55.53;100197.72;4940577;28;8862;-72
2021/12/23 06:40:18;;;;;;;;;;;;;;;3.50;55.35;100196.28;4947390;28;6819;-72
2021/12/23 06:42:44;;;;;;;;;;;;;;;3.52;55.71;100194.75;4950380;28;6989;-72
2021/12/23 06:45:12;;;;;;;;;;;;;;;3.55;55.41;100194.97;4925911;28;7008;-72
2021/12/23 06:47:38;;;;;;;;;;;;;;;3.58;55.61;100213.81;4947356;28;7928;-72
2021/12/23 06:50:06;;;;;;;;;;;;;;;3.63;55.57;100215.81;4950397;28;6922;-72
2021/12/23 06:52:32;;;;;;;;;;;;;;;3.65;55.96;100209.19;4949135;28;6792;-72
2021/12/23 06:54:58;;;;;;;;;;;;;;;3.68;55.07;100210.31;4948778;28;7369;-73
2021/12/23 06:57:26;;;;;;;;;;;;;;;3.68;55.59;100202.72;4949446;28;7930;-72
2021/12/23 06:59:52;;;;;;;;;;;;;;;3.69;55.20;100190.91;4953261;28;7401;-72
2021/12/23 07:02:18;;;;;;;;;;;;;;;3.73;55.45;100197.97;4932568;28;6852;-73
2021/12/23 07:04:45;;;;;;;;;;;;;;;3.76;55.55;100198.19;4949291;28;6888;-73
2021/12/23 07:07:13;;;;;;;;;;;;;;;3.81;55.88;100194.31;4950952;28;7288;-73
2021/12/23 07:09:45;;;;;;;;;;;;;;;3.86;55.25;100189.56;4958871;28;7052;-73
2021/12/23 07:12:13;;;;;;;;;;;;;;;3.89;55.16;100194.88;4953107;28;6907;-73
2021/12/23 07:14:39;;;;;;;;;;;;;;;3.91;55.47;100182.28;4951654;28;7124;-72
2021/12/23 07:17:07;;;;;;;;;;;;;;;3.94;55.33;100183.38;4934529;28;6915;-72
2021/12/23 07:19:34;;;;;;;;;;;;;;;3.96;55.83;100184.41;4941514;28;7000;-72
2021/12/23 07:22:00;;;;;;;;;;;;;;;3.98;56.11;100187.03;4955390;28;6976;-72
2021/12/23 07:24:26;;;;;;;;;;;;;;;4.01;56.01;100190.66;4954041;28;6861;-73
2021/12/23 07:26:53;;;;;;;;;;;;;;;4.04;55.71;100192.53;4960897;28;6874;-73
2021/12/23 07:29:19;;;;;;;;;;;;;;;4.06;55.02;100193.53;4955795;28;6843;-73
2021/12/23 07:31:44;;;;;;;;;;;;;;;4.09;55.23;100193.72;4959062;28;7007;-73
2021/12/23 07:34:10;;;;;;;;;;;;;;;4.12;54.75;100191.44;4941818;28;6871;-73
2021/12/23 07:36:36;;;;;;;;;;;;;;;4.15;55.41;100191.63;4952912;28;6878;-73
2021/12/23 07:39:09;;;;;;;;;;;;;;;4.17;55.36;100189.22;4953903;28;7900;-73
2021/12/23 07:41:35;;;;;;;;;;;;;;;4.20;54.48;100198.69;4978016;28;7269;-73
2021/12/23 07:44:07;;;;;;;;;;;;;;;4.21;54.74;100201.34;4959756;28;8064;-73
2021/12/23 07:46:36;;;;;;;;;;;;;;;4.23;54.93;100201.47;4943852;28;6995;-72
2021/12/23 07:49:04;;;;;;;;;;;;;;;4.24;54.90;100193.06;4945703;28;6892;-72
2021/12/23 07:51:30;;;;;;;;;;;;;;;4.27;55.08;100194.16;4944218;28;6987;-72
2021/12/23 07:53:56;;;;;;;;;;;;;;;4.31;55.42;100188.50;4955367;28;6804;-72
2021/12/23 07:56:24;;;;;;;;;;;;;;;4.35;55.44;100186.22;4960930;28;7288;-72
2021/12/23 07:58:51;;;;;;;;;;;;;;;4.37;54.88;100177.03;4960544;28;8096;-72
2021/12/23 08:01:18;;;;;;;;;;;;;;;4.40;54.48;100170.53;4926329;28;6975;-72
2021/12/23 08:03:44;;;;;;;;;;;;;;;4.43;55.18;100165.66;4944365;28;6978;-72
2021/12/23 08:06:11;;;;;;;;;;;;;;;4.45;55.29;100156.47;4960253;28;7239;-72
2021/12/23 08:08:36;;;;;;;;;;;;;;;4.50;55.25;100164.41;4954947;28;6895;-72
2021/12/23 08:11:02;;;;;;;;;;;;;;;4.57;55.22;100163.16;4958956;28;6811;-72
2021/12/23 08:13:29;;;;;;;;;;;;;;;4.59;55.77;100159.97;4955180;28;7117;-72
2021/12/23 08:15:55;;;;;;;;;;;;;;;4.61;54.95;100159.19;4958444;28;6986;-73
2021/12/23 08:18:20;;;;;;;;;;;;;;;4.62;55.03;100158.41;4957311;28;7120;-73
2021/12/23 08:20:46;;;;;;;;;;;;;;;4.62;55.27;100156.75;4961456;28;7502;-73
2021/12/23 08:23:12;;;;;;;;;;;;;;;4.65;55.64;100151.00;4944642;28;8027;-73
2021/12/23 08:25:38;;;;;;;;;;;;;;;4.67;55.55;100147.78;4953437;28;7468;-73
2021/12/23 08:28:04;;;;;;;;;;;;;;;4.71;55.46;100146.34;4959704;28;6796;-73
2021/12/23 08:30:30;;;;;;;;;;;;;;;4.72;55.03;100143.91;4974472;28;6812;-73
2021/12/23 08:32:55;;;;;;;;;;;;;;;4.78;55.33;100140.91;4960394;28;8452;-73
2021/12/23 08:35:21;;;;;;;;;;;;;;;4.83;55.47;100141.19;4958942;28;6867;-73
2021/12/23 08:37:50;;;;;;;;;;;;;;;4.92;55.71;100140.94;4951194;28;6941;-73
2021/12/23 08:40:22;;;;;;;;;;;;;;;5.02;55.21;100137.34;4976867;28;6970;-73
2021/12/23 08:42:49;;;;;;;;;;;;;;;5.11;55.64;100143.03;4957774;28;6808;-73
2021/12/23 08:45:16;;;;;;;;;;;;;;;5.17;55.23;100146.00;4957577;28;6979;-72
2021/12/23 08:47:42;;;;;;;;;;;;;;;5.27;55.43;100142.38;4949937;28;6821;-72
2021/12/23 08:50:10;;;;;;;;;;;;;;;5.34;54.96;100139.47;4941693;28;7006;-72
2021/12/23 08:52:36;;;;;;;;;;;;;;;5.41;54.78;100133.09;4943133;28;6800;-72
2021/12/23 08:55:06;;;;;;;;;;;;;;;5.47;54.99;100132.63;4953439;28;7106;-72
2021/12/23 08:57:32;;;;;;;;;;;;;;;5.52;54.61;100132.13;4957624;28;6876;-72
2021/12/23 08:59:58;;;;;;;;;;;;;;;5.59;54.92;100133.38;4956446;28;6809;-72
2021/12/23 09:02:25;;;;;;;;;;;;;;;5.64;55.26;100131.13;4950099;28;6811;-72
2021/12/23 09:04:51;;;;;;;;;;;;;;;5.69;54.51;100124.69;4958447;28;7106;-72
2021/12/23 09:07:16;;;;;;;;;;;;;;;5.76;54.70;100115.78;4969676;28;6958;-72
2021/12/23 09:09:46;;;;;;;;;;;;;;;5.80;54.84;100120.31;4925847;28;6995;-72
2021/12/23 09:12:12;;;;;;;;;;;;;;;5.82;54.83;100117.03;4948238;28;6811;-72
2021/12/23 09:14:38;;;;;;;;;;;;;;;5.88;54.89;100111.47;4947983;28;6999;-72
2021/12/23 09:17:04;;;;;;;;;;;;;;;5.95;54.98;100108.50;4944581;28;6791;-72
2021/12/23 09:19:30;;;;;;;;;;;;;;;6.01;55.08;100097.84;4959584;28;6800;-72
2021/12/23 09:21:56;;;;;;;;;;;;;;;6.08;54.89;100101.66;4943602;28;7929;-72
2021/12/23 09:24:22;;;;;;;;;;;;;;;6.15;54.66;100105.47;4942532;28;7239;-72
2021/12/23 09:26:58;;;;;;;;;;;;;;;6.24;54.61;100100.97;4926591;28;7327;-72
2021/12/23 09:34:48;;;;;;;;;;;;;;;6.53;54.78;100094.19;4958137;28;6899;-71
2021/12/23 09:37:15;;;;;;;;;;;;;;;6.66;54.51;100091.56;4949038;28;6876;-71
2021/12/23 09:39:44;;;;;;;;;;;;;;;6.83;54.86;100093.31;4958820;28;6808;-71
2021/12/23 09:42:13;;;;;;;;;;;;;;;6.98;54.71;100089.13;4960984;28;6816;-71
2021/12/23 09:44:40;;;;;;;;;;;;;;;7.11;54.10;100085.63;4948041;28;6804;-71
2021/12/23 09:47:06;;;;;;;;;;;;;;;7.24;53.76;100092.25;4956981;28;7207;-71
2021/12/23 09:49:32;;;;;;;;;;;;;;;7.36;54.46;100095.53;4959187;28;7344;-71
2021/12/23 09:52:04;;;;;;;;;;;;;;;7.48;54.08;100107.19;4957463;28;6793;-71
2021/12/23 09:54:30;;;;;;;;;;;;;;;7.58;53.99;100109.47;4948637;28;7023;-71
2021/12/23 09:56:57;;;;;;;;;;;;;;;7.67;53.59;100101.44;4940418;28;6800;-71
2021/12/23 09:59:27;;;;;;;;;;;;;;;7.82;52.65;100092.88;4958689;28;6975;-71
2021/12/23 10:01:54;;;;;;;;;;;;;;;7.95;53.21;100087.63;4954921;28;7958;-71
2021/12/23 10:04:21;;;;;;;;;;;;;;;8.11;52.51;100091.88;4955116;28;7202;-71
2021/12/23 10:06:48;;;;;;;;;;;;;;;8.29;51.88;100093.63;4966145;28;6797;-71
2021/12/23 10:09:24;;;;;;;;;;;;;;;8.42;51.57;100088.38;4962531;28;8229;-71
2021/12/23 10:12:55;;;;;;;;;;;;;;;8.50;51.59;100081.09;4960654;28;7306;-71
2021/12/23 10:31:51;;;;;;;;;;;;;;;9.38;51.11;100050.47;4950879;28;7154;-71
2021/12/23 10:37:22;;;;;;;;;;;;;;;9.59;50.10;100036.09;4953695;28;7446;-71
2021/12/23 10:40:09;;;;;;;;;;;;;;;9.69;49.71;100029.72;4927431;28;7031;-71
2021/12/23 10:42:34;;;;;;;;;;;;;;;9.78;49.68;100023.25;4941647;28;7291;-71
2021/12/23 10:45:08;;;;;;;;;;;;;;;9.85;49.22;100020.16;4952235;28;7351;-71
2021/12/23 10:47:52;;;;;;;;;;;;;;;9.91;50.07;100019.56;4949577;28;6812;-71
2021/12/23 10:50:38;;;;;;;;;;;;;;;9.88;49.28;100004.09;4935045;28;6931;-71
2021/12/23 10:53:22;;;;;;;;;;;;;;;9.80;49.22;100006.28;4951351;28;7605;-71
2021/12/23 10:59:15;;;;;;;;;;;;;;;9.62;50.39;99996.09;4953280;28;6868;-71
2021/12/23 11:02:18;;;;;;;;;;;;;;;9.55;49.65;99987.28;4949388;28;6804;-71
2021/12/23 11:27:51;;;;;;;;;;;;;;;10.13;50.33;99952.25;4948582;28;6963;-71
2021/12/23 11:36:35;;;;;;;;;;;;;;;10.24;49.10;99945.03;4949577;28;6979;-71
2021/12/23 11:41:33;;;;;;;;;;;;;;;10.21;50.09;99934.63;4944841;28;6832;-71
2021/12/23 11:44:03;;;;;;;;;;;;;;;10.23;50.40;99922.75;4963240;28;7247;-71
2021/12/23 11:46:55;;;;;;;;;;;;;;;10.28;50.19;99914.50;4931538;28;7333;-71
2021/12/23 11:49:21;;;;;;;;;;;;;;;10.38;50.43;99913.16;4943488;28;7187;-71
2021/12/23 11:54:46;;;;;;;;;;;;;;;10.61;50.78;99892.75;4946602;28;6812;-71
2021/12/23 11:57:27;;;;;;;;;;;;;;;10.75;50.46;99893.28;4942533;28;6820;-71
2021/12/23 12:00:09;;;;;;;;;;;;;;;10.89;50.68;99892.97;4943954;28;7002;-71
2021/12/23 12:02:36;;;;;;;;;;;;;;;11.06;50.78;99875.66;4928064;28;6997;-71
2021/12/23 12:05:15;;;;;;;;;;;;;;;11.24;50.26;99876.34;4911415;28;7247;-71
2021/12/23 12:07:41;;;;;;;;;;;;;;;11.40;49.85;99874.34;4951182;28;6900;-71
2021/12/23 12:10:18;;;;;;;;;;;;;;;11.53;50.19;99866.25;4952898;28;7122;-71
2021/12/23 12:13:07;;;;;;;;;;;;;;;11.67;49.76;99868.41;4944882;28;7206;-71
2021/12/23 12:15:38;;;;;;;;;;;;;;;11.75;49.67;99876.41;4952951;28;7902;-71
2021/12/23 12:18:09;;;;;;;;;;;;;;;11.81;49.45;99869.78;4960177;28;7206;-71
2021/12/23 12:23:39;;;;;;;;;;;;;;;11.91;49.47;99857.25;4950978;28;6886;-71
2021/12/23 12:26:12;;;;;;;;;;;;;;;11.92;49.79;99857.28;4948085;28;7280;-71
2021/12/23 12:28:47;;;;;;;;;;;;;;;11.95;49.79;99848.81;4948695;28;6820;-71
2021/12/23 12:31:21;;;;;;;;;;;;;;;11.99;49.71;99845.56;4950525;28;6993;-71
2021/12/23 12:34:08;;;;;;;;;;;;;;;12.06;49.83;99844.94;4944935;28;7087;-71
2021/12/23 12:36:49;;;;;;;;;;;;;;;12.12;49.92;99840.84;4936868;28;7206;-71
2021/12/23 12:39:40;;;;;;;;;;;;;;;12.15;49.06;99834.13;4946229;28;6820;-71
2021/12/23 12:42:11;;;;;;;;;;;;;;;12.17;49.29;99829.03;4953057;28;8136;-71
2021/12/23 12:44:47;;;;;;;;;;;;;;;12.17;49.83;99827.31;4931891;28;7020;-71
2021/12/23 12:47:26;;;;;;;;;;;;;;;12.17;48.97;99818.75;4953023;28;6986;-71
2021/12/23 12:50:18;;;;;;;;;;;;;;;12.17;49.55;99813.63;4952611;28;7000;-71
2021/12/23 12:52:49;;;;;;;;;;;;;;;12.18;49.88;99812.78;4949544;28;6820;-71
2021/12/23 12:55:23;;;;;;;;;;;;;;;12.21;50.09;99813.75;4932280;28;7156;-71
2021/12/23 12:57:57;;;;;;;;;;;;;;;12.22;49.36;99817.19;4951854;28;6828;-71
2021/12/23 13:00:33;;;;;;;;;;;;;;;12.19;50.04;99809.41;4948180;28;8011;-71
2021/12/23 13:03:22;;;;;;;;;;;;;;;12.15;50.14;99802.41;4943254;28;7747;-71
2021/12/23 13:05:53;;;;;;;;;;;;;;;12.10;49.90;99806.53;4945517;28;7050;-71
2021/12/23 13:08:39;;;;;;;;;;;;;;;12.04;49.96;99802.06;4963458;28;7268;-71
2021/12/23 13:11:07;;;;;;;;;;;;;;;11.98;50.69;99797.59;4953580;28;7077;-71
2021/12/23 13:13:43;;;;;;;;;;;;;;;11.93;50.33;99788.84;4948029;28;7034;-71
2021/12/23 13:16:18;;;;;;;;;;;;;;;11.90;50.60;99793.88;4935775;28;7212;-71
2021/12/23 13:18:44;;;;;;;;;;;;;;;11.86;50.61;99789.47;4947892;28;7176;-71
2021/12/23 13:21:10;;;;;;;;;;;;;;;11.84;50.66;99789.44;4950927;28;7326;-71
2021/12/23 13:23:43;;;;;;;;;;;;;;;11.81;50.74;99799.56;4953551;28;8318;-71
2021/12/23 13:26:20;;;;;;;;;;;;;;;11.79;50.81;99796.09;4947866;28;6876;-71
2021/12/23 13:28:56;;;;;;;;;;;;;;;11.78;50.54;99779.84;4953288;28;6804;-71
2021/12/23 13:31:27;;;;;;;;;;;;;;;11.77;50.90;99778.06;4968615;28;6807;-71
2021/12/23 13:34:01;;;;;;;;;;;;;;;11.78;51.35;99774.69;4943573;28;7232;-71
2021/12/23 13:36:31;;;;;;;;;;;;;;;11.80;51.23;99770.47;4945729;28;6819;-71
2021/12/23 13:39:01;;;;;;;;;;;;;;;11.83;51.11;99762.00;4959424;28;7699;-71
2021/12/23 13:41:36;;;;;;;;;;;;;;;11.87;50.91;99760.38;4944313;28;6812;-71
2021/12/23 13:44:50;;;;;;;;;;;;;;;11.92;51.03;99753.72;4950546;28;6824;-71
2021/12/23 13:47:21;;;;;;;;;;;;;;;11.98;50.83;99753.94;4949751;28;7226;-71
2021/12/23 13:49:53;;;;;;;;;;;;;;;12.01;51.12;99738.59;4946772;28;7003;-71
2021/12/23 13:52:27;;;;;;;;;;;;;;;12.03;50.77;99742.13;4943843;28;6823;-71
2021/12/23 13:54:57;;;;;;;;;;;;;;;12.03;50.67;99726.72;4951575;28;6949;-71
2021/12/23 13:57:26;;;;;;;;;;;;;;;12.02;51.17;99732.66;4943778;28;7409;-71
2021/12/23 13:59:53;;;;;;;;;;;;;;;12.01;50.83;99714.59;4939316;28;6824;-71
2021/12/23 14:02:25;;;;;;;;;;;;;;;11.99;51.09;99713.69;4937692;28;7554;-71
2021/12/23 14:05:01;;;;;;;;;;;;;;;11.96;51.71;99717.03;4946991;28;6990;-71
2021/12/23 14:07:38;;;;;;;;;;;;;;;11.93;51.08;99709.22;4950004;28;6884;-71
2021/12/23 14:10:21;;;;;;;;;;;;;;;11.90;51.51;99701.44;4944686;28;6842;-71
2021/12/23 14:13:00;;;;;;;;;;;;;;;11.89;51.52;99702.28;4942061;28;7142;-71
2021/12/23 14:15:28;;;;;;;;;;;;;;;11.87;51.77;99711.59;4931498;28;7037;-71
2021/12/23 14:18:09;;;;;;;;;;;;;;;11.88;51.91;99706.53;4951324;28;7102;-71